Time;durP1;ratioP1;P1;durP2;ratioP2;P2;SDS_P1;SDS_P2;PMS_P1;PMS_P2;Temp;Humidity;BMP_temperature;BMP_pressure;BME280_temperature;BME280_humidity;BME280_pressure;Samples;Min_cycle;Max_cycle;Signal;HPM_P1;HPM_P2
2022/05/22 00:00:22;;;;;;;8.40;4.25;;;;;;;10.23;85.34;101914.09;5053874;28;20032;-69
2022/05/22 00:02:48;;;;;;;7.70;4.22;;;;;;;10.25;85.29;101920.28;5054462;28;20040;-69
2022/05/22 00:05:17;;;;;;;9.93;5.65;;;;;;;10.45;85.57;101909.56;5054326;28;20408;-69
2022/05/22 00:07:45;;;;;;;10.90;6.00;;;;;;;10.49;85.90;101916.50;5054967;28;20059;-70
2022/05/22 00:10:12;;;;;;;13.95;7.13;;;;;;;10.41;86.49;101913.31;5054670;28;20037;-70
2022/05/22 00:12:39;;;;;;;11.30;6.05;;;;;;;10.32;86.23;101917.25;5053816;28;20036;-69
2022/05/22 00:15:05;;;;;;;12.02;6.30;;;;;;;10.29;86.12;101912.06;5055547;28;20044;-70
2022/05/22 00:17:30;;;;;;;19.65;7.45;;;;;;;10.31;86.58;101912.00;5055889;28;20832;-69
2022/05/22 00:19:56;;;;;;;12.48;6.20;;;;;;;10.39;87.06;101909.81;5055846;28;20048;-69
2022/05/22 00:22:21;;;;;;;14.65;7.25;;;;;;;10.47;87.16;101897.03;5039560;28;20123;-68
2022/05/22 00:24:46;;;;;;;14.50;8.02;;;;;;;10.48;87.57;101893.41;5034950;28;20095;-69
2022/05/22 00:27:12;;;;;;;19.52;8.23;;;;;;;10.36;87.67;101884.19;5034575;28;20090;-69
2022/05/22 00:29:38;;;;;;;13.07;8.30;;;;;;;10.23;88.81;101892.75;5035107;28;20053;-69
2022/05/22 00:32:06;;;;;;;16.05;8.20;;;;;;;10.11;89.74;101880.88;5031966;28;20068;-68
2022/05/22 00:34:31;;;;;;;17.48;9.02;;;;;;;10.06;90.24;101886.41;5034544;28;20890;-69
2022/05/22 00:36:56;;;;;;;16.02;9.25;;;;;;;10.21;89.59;101878.66;5034616;28;20045;-69
2022/05/22 00:39:22;;;;;;;23.05;10.13;;;;;;;10.24;89.02;101884.75;5033867;28;20063;-69
2022/05/22 00:41:52;;;;;;;16.55;8.35;;;;;;;10.07;87.92;101884.59;5034847;28;20041;-70
2022/05/22 00:44:18;;;;;;;14.18;6.97;;;;;;;9.92;87.15;101880.81;5033381;28;20105;-69
2022/05/22 00:46:44;;;;;;;13.23;6.45;;;;;;;9.82;86.98;101883.00;5032090;28;20048;-69
2022/05/22 00:49:35;;;;;;;9.00;5.80;;;;;;;9.95;86.10;101882.50;5037610;28;20434;-69
2022/05/22 00:52:06;;;;;;;14.18;8.07;;;;;;;9.92;86.66;101877.28;5051083;28;20048;-69
2022/05/22 00:54:42;;;;;;;11.63;6.97;;;;;;;9.91;86.97;101878.22;5054069;28;20048;-69
2022/05/22 00:57:19;;;;;;;13.45;7.03;;;;;;;9.63;87.48;101870.56;5051714;28;20143;-69
2022/05/22 00:59:52;;;;;;;10.73;6.53;;;;;;;9.60;86.71;101867.09;5053406;28;20420;-69
2022/05/22 01:02:18;;;;;;;12.52;6.45;;;;;;;9.52;87.19;101863.88;5054023;28;20029;-68
2022/05/22 01:04:45;;;;;;;9.60;6.13;;;;;;;9.47;87.07;101867.69;5053414;28;20043;-68
2022/05/22 01:07:12;;;;;;;6.55;4.60;;;;;;;9.53;87.26;101864.75;5052407;28;20045;-68
2022/05/22 01:09:37;;;;;;;9.15;6.03;;;;;;;9.47;89.99;101871.19;5053284;28;20024;-68
2022/05/22 01:12:14;;;;;;;10.18;5.78;;;;;;;9.59;87.76;101860.06;5051901;28;20129;-69
2022/05/22 01:14:40;;;;;;;15.05;6.60;;;;;;;9.64;87.83;101867.84;5022257;28;20037;-68
2022/05/22 01:17:08;;;;;;;15.15;8.32;;;;;;;9.67;87.79;101861.50;5012050;28;20180;-70
2022/05/22 01:19:36;;;;;;;15.43;6.53;;;;;;;9.52;87.58;101868.34;5012989;28;20033;-70
2022/05/22 01:22:06;;;;;;;11.80;6.90;;;;;;;9.30;88.01;101865.72;5025525;28;20044;-69
2022/05/22 01:24:33;;;;;;;14.55;4.75;;;;;;;9.13;88.18;101865.53;5032239;28;20128;-70
2022/05/22 01:27:02;;;;;;;6.07;3.70;;;;;;;9.10;88.55;101863.03;5032091;28;20044;-69
2022/05/22 01:29:44;;;;;;;8.65;5.05;;;;;;;9.19;89.26;101860.88;5031938;28;20045;-70
2022/05/22 01:32:09;;;;;;;12.15;6.90;;;;;;;9.24;89.26;101863.34;5033081;28;20040;-69
2022/05/22 01:34:35;;;;;;;11.80;6.55;;;;;;;9.32;89.02;101859.41;5033027;28;20033;-69
2022/05/22 01:37:01;;;;;;;18.25;7.65;;;;;;;9.33;88.45;101869.09;5014693;28;20045;-69
2022/05/22 01:39:27;;;;;;;16.13;8.13;;;;;;;9.34;88.39;101865.53;5031650;28;20041;-69
2022/05/22 01:41:55;;;;;;;10.73;6.68;;;;;;;9.29;88.01;101851.56;5031483;28;20036;-70
2022/05/22 01:44:21;;;;;;;9.13;6.00;;;;;;;9.32;87.49;101851.41;5032579;28;20658;-70
2022/05/22 01:46:47;;;;;;;9.63;5.97;;;;;;;9.26;88.24;101851.69;5014650;28;20044;-69
2022/05/22 01:49:14;;;;;;;11.45;6.65;;;;;;;9.10;88.77;101855.03;5036070;28;20044;-69
2022/05/22 01:51:41;;;;;;;10.77;6.53;;;;;;;8.96;88.70;101856.47;5050714;28;20046;-69
2022/05/22 01:54:08;;;;;;;7.95;5.38;;;;;;;8.90;88.16;101859.38;5049404;28;20351;-69
2022/05/22 01:56:35;;;;;;;10.32;4.78;;;;;;;8.85;87.81;101855.16;5051729;28;20141;-69
2022/05/22 01:59:04;;;;;;;7.47;4.22;;;;;;;8.98;87.16;101859.06;5050105;28;20032;-69
2022/05/22 02:01:33;;;;;;;12.18;5.28;;;;;;;9.06;86.94;101849.84;5051870;28;20869;-69
2022/05/22 02:04:03;;;;;;;19.35;7.20;;;;;;;9.15;89.63;101855.72;5052184;28;20806;-69
2022/05/22 02:06:32;;;;;;;12.40;6.82;;;;;;;9.14;89.10;101849.53;5035078;28;20049;-69
2022/05/22 02:09:07;;;;;;;17.27;7.47;;;;;;;9.16;88.56;101845.00;5050265;28;20032;-70
2022/05/22 02:11:36;;;;;;;13.32;7.47;;;;;;;8.96;89.68;101844.97;5050767;28;20497;-69
2022/05/22 02:14:02;;;;;;;7.60;4.53;;;;;;;8.51;90.30;101846.72;5050831;28;20029;-69
2022/05/22 02:16:28;;;;;;;35.75;5.57;;;;;;;8.51;90.07;101856.47;5034878;28;20429;-69
2022/05/22 02:18:53;;;;;;;7.60;4.57;;;;;;;8.32;90.35;101861.59;5050573;28;20076;-70
2022/05/22 02:21:20;;;;;;;6.95;5.55;;;;;;;8.46;90.20;101854.00;5046674;28;20040;-69
2022/05/22 02:23:46;;;;;;;12.20;6.35;;;;;;;8.54;89.44;101848.41;5033497;28;20072;-69
2022/05/22 02:26:11;;;;;;;10.25;6.82;;;;;;;8.67;89.24;101838.13;5031456;28;20037;-69
2022/05/22 02:28:39;;;;;;;10.65;6.40;;;;;;;8.74;88.92;101831.66;5032152;28;20036;-69
2022/05/22 02:31:04;;;;;;;11.45;6.85;;;;;;;8.73;89.00;101828.13;5031529;28;20040;-69
2022/05/22 02:33:31;;;;;;;14.05;6.80;;;;;;;8.75;89.09;101828.06;5031029;28;20705;-69
2022/05/22 02:36:06;;;;;;;9.32;6.25;;;;;;;8.74;88.87;101821.91;5030899;28;20121;-69
2022/05/22 02:38:34;;;;;;;8.90;6.28;;;;;;;8.67;88.80;101819.53;5033294;28;20261;-69
2022/05/22 02:41:00;;;;;;;10.25;5.93;;;;;;;8.60;88.54;101815.38;5030522;28;20029;-69
2022/05/22 02:43:27;;;;;;;12.25;5.95;;;;;;;8.67;88.01;101811.53;5030032;28;20791;-69
2022/05/22 02:45:59;;;;;;;12.70;5.93;;;;;;;8.72;88.25;101813.09;5014192;28;20481;-69
2022/05/22 02:48:24;;;;;;;9.38;6.28;;;;;;;8.79;88.38;101814.59;5032175;28;20080;-69
2022/05/22 02:51:11;;;;;;;10.30;6.45;;;;;;;8.65;88.75;101814.28;5011036;28;20045;-69
2022/05/22 02:53:37;;;;;;;12.05;4.85;;;;;;;8.29;89.80;101805.91;5012490;28;20038;-69
2022/05/22 02:56:24;;;;;;;7.82;4.45;;;;;;;7.96;88.66;101808.91;5011722;28;20115;-69
2022/05/22 02:58:58;;;;;;;7.25;4.40;;;;;;;8.01;89.08;101811.41;5010824;28;20933;-68
2022/05/22 03:01:25;;;;;;;7.82;4.38;;;;;;;7.96;88.25;101813.34;5009484;28;20069;-69
2022/05/22 03:03:51;;;;;;;8.88;4.38;;;;;;;7.89;90.10;101811.88;5011299;28;20037;-70
2022/05/22 03:09:01;;;;;;;7.00;4.22;;;;;;;8.14;90.03;101804.72;5010673;28;20139;-69
2022/05/22 03:11:26;;;;;;;7.43;4.68;;;;;;;8.14;89.86;101802.06;5011167;28;20498;-69
2022/05/22 03:13:52;;;;;;;7.22;4.68;;;;;;;8.23;88.80;101792.84;5011461;28;20055;-68
2022/05/22 03:16:17;;;;;;;8.82;5.72;;;;;;;8.29;89.29;101798.81;5011020;28;20044;-68
2022/05/22 03:18:54;;;;;;;7.68;4.80;;;;;;;8.08;89.04;101804.91;5009819;28;20041;-69
2022/05/22 03:21:20;;;;;;;7.57;3.95;;;;;;;7.96;88.25;101803.59;5016318;28;20043;-69
2022/05/22 03:23:49;;;;;;;5.70;3.95;;;;;;;8.19;88.80;101801.88;5030328;28;20049;-69
2022/05/22 03:26:14;;;;;;;11.38;4.45;;;;;;;8.26;88.36;101798.06;5012327;28;20041;-70
2022/05/22 03:28:40;;;;;;;7.78;5.40;;;;;;;8.25;88.53;101799.84;5031778;28;20037;-68
2022/05/22 03:31:06;;;;;;;8.82;5.13;;;;;;;8.25;88.76;101804.31;5031013;28;20025;-68
2022/05/22 03:33:31;;;;;;;9.13;4.80;;;;;;;8.28;89.45;101801.50;5032481;28;20048;-68
2022/05/22 03:35:56;;;;;;;7.63;4.13;;;;;;;8.36;89.53;101796.81;5034405;28;20036;-68
2022/05/22 03:38:22;;;;;;;7.18;5.13;;;;;;;8.44;89.50;101791.22;5032465;28;20045;-68
2022/05/22 03:40:58;;;;;;;7.38;5.38;;;;;;;8.57;89.47;101787.97;5034197;28;20714;-69
2022/05/22 03:43:24;;;;;;;8.05;5.88;;;;;;;8.68;88.33;101790.22;5033471;28;20041;-70
2022/05/22 03:45:51;;;;;;;8.30;5.13;;;;;;;8.56;89.13;101796.03;5034323;28;20041;-70
2022/05/22 03:48:16;;;;;;;6.68;4.63;;;;;;;8.54;88.08;101790.78;5033330;28;20032;-69
2022/05/22 03:50:47;;;;;;;8.20;4.55;;;;;;;8.64;87.61;101801.06;5051943;28;20100;-69
2022/05/22 03:53:14;;;;;;;5.97;4.65;;;;;;;8.61;87.28;101803.81;5053258;28;20029;-69
2022/05/22 03:55:43;;;;;;;6.68;4.07;;;;;;;8.60;89.32;101802.97;5055514;28;20875;-69
2022/05/22 03:58:09;;;;;;;15.00;5.50;;;;;;;8.31;87.47;101802.25;5053553;28;20064;-70
2022/05/22 04:00:35;;;;;;;3.33;2.33;;;;;;;8.20;89.04;101798.28;5053904;28;20505;-70
2022/05/22 04:03:05;;;;;;;5.13;3.63;;;;;;;8.40;89.00;101800.22;5037014;28;20036;-69
2022/05/22 04:05:31;;;;;;;5.70;3.40;;;;;;;8.55;87.86;101794.31;5037830;28;20044;-69
2022/05/22 04:07:57;;;;;;;9.02;5.32;;;;;;;8.60;88.77;101791.47;5054514;28;20033;-69
2022/05/22 04:10:35;;;;;;;7.22;5.03;;;;;;;8.72;89.03;101791.81;5054702;28;20040;-69
2022/05/22 04:13:01;;;;;;;11.07;5.68;;;;;;;8.80;88.89;101791.53;5053223;28;20118;-70
2022/05/22 04:15:26;;;;;;;8.52;6.35;;;;;;;8.86;89.54;101790.41;5053376;28;20033;-70
2022/05/22 04:17:54;;;;;;;8.50;5.32;;;;;;;8.97;88.85;101791.69;5053299;28;20812;-70
2022/05/22 04:20:23;;;;;;;9.38;6.53;;;;;;;8.93;90.21;101783.91;5052173;28;20033;-69
2022/05/22 04:25:34;;;;;;;15.23;6.75;;;;;;;9.18;89.10;101789.06;5033488;28;20040;-69
2022/05/22 04:28:00;;;;;;;10.82;6.72;;;;;;;8.95;89.59;101792.69;5032878;28;20048;-69
2022/05/22 04:30:26;;;;;;;13.63;5.95;;;;;;;9.00;89.46;101786.25;5034737;28;20724;-69
2022/05/22 04:33:01;;;;;;;8.57;5.85;;;;;;;9.17;89.86;101782.88;5033004;28;20037;-69
2022/05/22 04:35:27;;;;;;;8.73;5.70;;;;;;;9.45;88.38;101782.56;5033604;28;20033;-69
2022/05/22 04:37:52;;;;;;;10.95;6.53;;;;;;;9.71;87.95;101775.22;5033757;28;20037;-69
2022/05/22 04:40:18;;;;;;;8.88;6.28;;;;;;;9.94;87.19;101774.16;5016168;28;20045;-68
2022/05/22 04:42:43;;;;;;;10.38;6.47;;;;;;;10.05;86.53;101767.44;5033913;28;20045;-69
2022/05/22 04:45:10;;;;;;;11.60;6.95;;;;;;;10.17;87.63;101776.63;5031833;28;20056;-69
2022/05/22 04:47:55;;;;;;;12.63;7.50;;;;;;;11.45;83.45;101758.78;5034156;28;20172;-69
2022/05/22 04:50:26;;;;;;;8.38;6.00;;;;;;;12.77;77.50;101765.78;5051398;28;20533;-70
2022/05/22 04:53:10;;;;;;;14.30;5.68;;;;;;;12.42;77.97;101765.13;5054667;28;20049;-69
2022/05/22 04:56:02;;;;;;;6.80;4.40;;;;;;;12.29;78.42;101762.25;5052810;28;20101;-69
2022/05/22 04:58:33;;;;;;;8.18;5.57;;;;;;;11.89;80.13;101760.91;5053577;28;20874;-69
2022/05/22 05:01:09;;;;;;;7.85;5.35;;;;;;;12.15;79.05;101760.38;5054709;28;20145;-68
2022/05/22 05:03:40;;;;;;;16.20;5.38;;;;;;;12.56;78.68;101764.34;5053993;28;20040;-69
2022/05/22 05:06:06;;;;;;;9.25;5.75;;;;;;;13.14;77.07;101764.47;5052479;28;20051;-68
2022/05/22 05:08:34;;;;;;;7.88;6.35;;;;;;;13.79;74.84;101768.66;5036356;28;20036;-68
2022/05/22 05:11:09;;;;;;;8.20;6.45;;;;;;;14.04;73.68;101757.25;5035896;28;20800;-68
2022/05/22 05:13:40;;;;;;;10.93;7.80;;;;;;;14.47;72.35;101758.06;5052397;28;20132;-68
2022/05/22 05:16:08;;;;;;;14.60;7.57;;;;;;;14.90;71.45;101747.19;5054071;28;20517;-69
2022/05/22 05:18:39;;;;;;;16.63;8.35;;;;;;;14.93;71.71;101752.34;5036854;28;20037;-70
2022/05/22 05:21:09;;;;;;;9.55;7.15;;;;;;;14.97;71.30;101751.19;5046934;28;20085;-67
2022/05/22 05:23:35;;;;;;;16.25;8.70;;;;;;;14.88;71.66;101749.13;5033673;28;20081;-68
2022/05/22 05:26:20;;;;;;;13.63;8.40;;;;;;;15.26;70.30;101744.69;5031096;28;20786;-68
2022/05/22 05:28:46;;;;;;;16.98;8.57;;;;;;;15.73;69.43;101745.94;5031671;28;20028;-69
2022/05/22 05:31:16;;;;;;;11.93;8.52;;;;;;;15.86;70.42;101750.44;5031133;28;20064;-68
2022/05/22 05:33:42;;;;;;;18.02;8.50;;;;;;;16.64;66.67;101742.06;5031736;28;20068;-68
2022/05/22 05:36:16;;;;;;;12.45;7.47;;;;;;;16.84;66.47;101736.06;5030907;28;20036;-68
2022/05/22 05:39:01;;;;;;;14.40;7.40;;;;;;;17.36;64.59;101745.53;5021880;28;20053;-68
2022/05/22 05:41:39;;;;;;;13.38;7.25;;;;;;;17.49;64.25;101749.00;5032347;28;20644;-69
2022/05/22 05:44:06;;;;;;;10.35;6.57;;;;;;;16.98;64.22;101746.66;5032259;28;20052;-68
2022/05/22 05:46:37;;;;;;;13.80;8.07;;;;;;;17.68;62.77;101748.44;5032172;28;20047;-68
2022/05/22 05:49:08;;;;;;;12.32;7.97;;;;;;;17.59;64.89;101754.53;5031423;28;20037;-68
2022/05/22 05:51:36;;;;;;;8.93;7.65;;;;;;;18.07;63.42;101747.13;5014916;28;20095;-68
2022/05/22 05:54:03;;;;;;;12.32;7.70;;;;;;;18.55;60.32;101744.09;5011852;28;20048;-68
2022/05/22 05:57:01;;;;;;;13.95;7.03;;;;;;;19.34;57.42;101739.25;5029436;28;20406;-68
2022/05/22 05:59:34;;;;;;;8.68;6.85;;;;;;;19.48;57.77;101737.19;5012934;28;20091;-68
2022/05/22 06:02:14;;;;;;;11.70;6.65;;;;;;;19.73;58.36;101736.81;5013813;28;20069;-69
2022/05/22 06:04:40;;;;;;;10.90;5.82;;;;;;;19.52;57.07;101733.22;5032104;28;20145;-68
2022/05/22 06:07:08;;;;;;;10.75;6.28;;;;;;;19.34;56.25;101733.00;5034310;28;20052;-68
2022/05/22 06:09:35;;;;;;;12.63;5.85;;;;;;;18.56;59.40;101739.53;5033499;28;20032;-68
2022/05/22 06:12:06;;;;;;;9.02;5.47;;;;;;;18.95;59.11;101739.94;5049059;28;20052;-68
2022/05/22 06:14:39;;;;;;;13.95;6.22;;;;;;;19.18;57.62;101746.09;5032688;28;20047;-69
2022/05/22 06:17:05;;;;;;;10.05;5.40;;;;;;;19.42;58.15;101738.56;5015241;28;20037;-68
2022/05/22 06:19:54;;;;;;;8.43;5.15;;;;;;;19.61;55.81;101737.88;5031983;28;20060;-68
2022/05/22 06:22:22;;;;;;;10.05;5.50;;;;;;;19.09;57.42;101743.19;5048986;28;20972;-68
2022/05/22 06:24:50;;;;;;;18.02;6.10;;;;;;;19.84;55.46;101739.44;5031630;28;20133;-67
2022/05/22 06:27:28;;;;;;;10.45;6.13;;;;;;;19.48;57.83;101740.78;5048610;28;20051;-68
2022/05/22 06:30:14;;;;;;;10.68;5.43;;;;;;;19.46;56.90;101744.59;5047810;28;20550;-68
2022/05/22 06:33:08;;;;;;;13.82;5.43;;;;;;;20.06;56.17;101751.91;5015321;28;20076;-68
2022/05/22 06:35:54;;;;;;;8.88;5.85;;;;;;;20.33;55.01;101745.88;5011612;28;20057;-67
2022/05/22 06:41:39;;;;;;;8.55;5.20;;;;;;;20.99;54.98;101739.00;5031434;28;20049;-68
2022/05/22 06:44:41;;;;;;;13.95;5.13;;;;;;;21.37;54.01;101749.84;5029396;28;20045;-70
2022/05/22 06:47:35;;;;;;;11.45;5.35;;;;;;;20.87;56.27;101747.25;5017330;28;20624;-70
2022/05/22 06:50:23;;;;;;;6.95;3.42;;;;;;;20.99;53.06;101737.16;5027430;28;20047;-69
2022/05/22 06:52:58;;;;;;;8.95;3.58;;;;;;;21.07;52.46;101742.69;5030037;28;20056;-69
2022/05/22 06:55:30;;;;;;;6.65;3.15;;;;;;;20.62;51.24;101748.66;5029544;28;20628;-69
2022/05/22 06:58:15;;;;;;;5.93;3.08;;;;;;;20.28;50.00;101748.16;5029380;28;20119;-69
2022/05/22 07:01:03;;;;;;;10.80;3.10;;;;;;;20.78;50.38;101750.81;5025936;28;20106;-70
2022/05/22 07:03:42;;;;;;;10.60;2.90;;;;;;;20.85;50.65;101749.28;5010713;28;20124;-69
2022/05/22 07:06:31;;;;;;;6.40;2.55;;;;;;;21.32;50.18;101743.13;5022278;28;20199;-70
2022/05/22 07:09:16;;;;;;;5.55;2.65;;;;;;;20.77;49.78;101745.53;5027405;28;20045;-69
2022/05/22 07:12:08;;;;;;;9.20;2.80;;;;;;;20.89;48.85;101745.28;5010905;28;20052;-69
2022/05/22 07:14:54;;;;;;;6.35;2.88;;;;;;;21.37;49.90;101746.25;5027702;28;20168;-71
2022/05/22 07:17:42;;;;;;;4.38;2.78;;;;;;;21.18;51.27;101736.25;4988612;28;20084;-70
2022/05/22 07:20:29;;;;;;;5.80;3.00;;;;;;;21.02;49.53;101738.69;4974086;28;20050;-70
2022/05/22 07:23:14;;;;;;;7.65;3.30;;;;;;;21.04;48.53;101740.28;4973183;28;20055;-70
2022/05/22 07:25:55;;;;;;;8.52;3.45;;;;;;;21.00;51.50;101740.72;4958869;28;20069;-70
2022/05/22 07:28:50;;;;;;;6.07;3.25;;;;;;;21.42;49.29;101741.25;4974091;28;20641;-69
2022/05/22 07:31:34;;;;;;;7.03;2.88;;;;;;;21.53;47.39;101737.50;4984498;28;20562;-69
2022/05/22 07:34:19;;;;;;;6.50;2.78;;;;;;;21.52;47.21;101735.81;4973367;28;20750;-69
2022/05/22 07:37:13;;;;;;;8.43;3.17;;;;;;;21.37;48.45;101733.56;4990193;28;20045;-70
2022/05/22 07:39:49;;;;;;;9.32;3.60;;;;;;;21.33;48.99;101737.56;4974838;28;20049;-70
2022/05/22 07:42:31;;;;;;;7.97;3.50;;;;;;;20.88;46.09;101730.00;4970558;28;20058;-69
2022/05/22 07:45:24;;;;;;;5.25;2.90;;;;;;;21.00;50.99;101725.28;4974826;28;20050;-70
2022/05/22 07:48:00;;;;;;;6.30;3.28;;;;;;;21.22;49.65;101732.25;4969820;28;20161;-69
2022/05/22 07:50:59;;;;;;;5.95;2.88;;;;;;;21.52;47.53;101733.09;4986879;28;20081;-69
2022/05/22 07:53:50;;;;;;;6.63;2.88;;;;;;;21.98;45.89;101733.06;4974347;28;20050;-68
2022/05/22 07:56:35;;;;;;;6.18;2.35;;;;;;;22.05;40.88;101732.50;5019260;28;20033;-67
2022/05/22 07:59:29;;;;;;;4.22;1.20;;;;;;;22.09;39.74;101733.88;5034729;28;20052;-67
2022/05/22 08:02:15;;;;;;;4.55;1.52;;;;;;;21.49;42.97;101738.81;5013250;28;20147;-67
2022/05/22 08:04:45;;;;;;;7.05;1.38;;;;;;;21.94;42.65;101736.25;5033655;28;20039;-68
2022/05/22 08:07:38;;;;;;;8.48;2.15;;;;;;;22.18;44.41;101739.28;5033500;28;20099;-69
2022/05/22 08:10:14;;;;;;;3.78;1.80;;;;;;;21.81;45.06;101733.00;5041939;28;20063;-69
2022/05/22 08:12:44;;;;;;;3.60;1.70;;;;;;;21.83;44.48;101729.13;5033241;28;20040;-68
2022/05/22 08:15:21;;;;;;;7.95;2.33;;;;;;;21.59;47.28;101724.22;5033674;28;20064;-69
2022/05/22 08:17:51;;;;;;;7.22;2.38;;;;;;;22.51;43.44;101719.81;5020384;28;20044;-69
2022/05/22 08:20:19;;;;;;;6.30;2.35;;;;;;;21.39;45.66;101725.28;5013151;28;20075;-69
2022/05/22 08:22:57;;;;;;;8.13;2.22;;;;;;;22.39;44.62;101714.59;5039192;28;20872;-69
2022/05/22 08:25:41;;;;;;;3.47;1.63;;;;;;;21.72;44.65;101711.16;5036747;28;20048;-70
2022/05/22 08:28:08;;;;;;;6.85;1.95;;;;;;;21.83;44.91;101706.56;5031952;28;20051;-71
2022/05/22 08:30:34;;;;;;;4.25;1.73;;;;;;;21.34;40.11;101701.31;5036597;28;20036;-70
2022/05/22 08:33:01;;;;;;;6.53;1.98;;;;;;;21.88;39.75;101698.81;5041265;28;20795;-69
2022/05/22 08:35:29;;;;;;;6.90;1.63;;;;;;;21.39;42.58;101690.00;5043705;28;20219;-69
2022/05/22 08:37:55;;;;;;;3.47;2.08;;;;;;;21.08;45.56;101690.16;5033723;28;20111;-70
2022/05/22 08:40:24;;;;;;;4.22;1.98;;;;;;;21.58;42.51;101684.50;5046318;28;20045;-68
2022/05/22 08:43:02;;;;;;;7.95;2.92;;;;;;;21.05;42.65;101686.91;5028112;28;20090;-69
2022/05/22 08:45:40;;;;;;;4.68;1.38;;;;;;;21.19;44.42;101678.31;5011263;28;20041;-69
2022/05/22 08:48:12;;;;;;;5.25;2.13;;;;;;;21.42;44.66;101671.56;5043365;28;20044;-68
2022/05/22 08:50:38;;;;;;;5.03;1.65;;;;;;;21.60;42.38;101681.66;5048807;28;20497;-68
2022/05/22 08:53:09;;;;;;;4.32;1.40;;;;;;;21.36;40.16;101674.84;5040756;28;20040;-67
2022/05/22 09:01:40;;;;;;;12.98;3.05;;;;;;;22.23;44.74;101658.19;5038291;28;20047;-70
2022/05/22 09:04:20;;;;;;;7.15;1.55;;;;;;;21.75;44.91;101661.16;5048528;28;20044;-69
2022/05/22 09:07:05;;;;;;;2.92;1.35;;;;;;;21.06;40.85;101654.19;5033779;28;20047;-67
2022/05/22 09:09:34;;;;;;;5.43;1.55;;;;;;;21.27;39.66;101653.16;5040546;28;21014;-69
2022/05/22 09:12:10;;;;;;;3.72;1.80;;;;;;;20.82;43.88;101651.94;5030971;28;20143;-69
2022/05/22 09:14:47;;;;;;;2.28;1.40;;;;;;;21.62;45.54;101649.78;5036083;28;20038;-69
2022/05/22 09:17:27;;;;;;;5.10;1.83;;;;;;;20.71;44.93;101649.38;5040964;28;20139;-69
2022/05/22 09:20:09;;;;;;;4.57;1.55;;;;;;;21.64;44.61;101635.06;5046936;28;20037;-68
2022/05/22 09:22:56;;;;;;;5.45;1.30;;;;;;;21.49;41.88;101628.41;5031466;28;20158;-68
2022/05/22 09:25:51;;;;;;;2.95;1.25;;;;;;;21.63;42.37;101627.03;5035523;28;20425;-68
2022/05/22 09:28:45;;;;;;;5.25;1.38;;;;;;;21.26;43.75;101616.19;5029753;28;20107;-68
2022/05/22 09:31:34;;;;;;;5.72;1.58;;;;;;;21.75;47.53;101608.72;5040281;28;20859;-68
2022/05/22 09:34:14;;;;;;;4.10;1.42;;;;;;;21.66;44.35;101608.59;5032801;28;20040;-68
2022/05/22 09:37:13;;;;;;;5.93;2.17;;;;;;;20.48;41.75;101612.72;5044754;28;20052;-68
2022/05/22 09:40:00;;;;;;;5.00;1.40;;;;;;;20.85;41.40;101604.72;5026495;28;20629;-68
2022/05/22 09:42:40;;;;;;;2.88;1.67;;;;;;;20.85;41.44;101612.84;5019294;28;20047;-69
2022/05/22 09:45:31;;;;;;;2.90;1.75;;;;;;;21.26;42.00;101613.47;5025801;28;20064;-68
2022/05/22 09:48:15;;;;;;;7.47;1.10;;;;;;;21.29;45.41;101608.59;5023159;28;20037;-70
2022/05/22 09:51:09;;;;;;;8.20;1.50;;;;;;;20.91;40.10;101607.69;5017524;28;20083;-69
2022/05/22 09:53:52;;;;;;;4.25;1.27;;;;;;;20.42;41.59;101604.13;5023393;28;20114;-69
2022/05/22 09:56:55;;;;;;;5.80;1.27;;;;;;;21.33;47.23;101604.59;5034786;28;20045;-69
2022/05/22 09:59:41;;;;;;;4.28;1.27;;;;;;;21.37;42.32;101602.44;5034873;28;20139;-69
2022/05/22 10:02:19;;;;;;;2.58;1.20;;;;;;;20.99;41.46;101601.56;5025408;28;20029;-69
2022/05/22 10:05:00;;;;;;;6.28;1.48;;;;;;;21.74;42.17;101599.72;5016200;28;20034;-69
2022/05/22 10:07:38;;;;;;;2.90;1.30;;;;;;;21.05;42.18;101611.81;5014421;28;20036;-69
2022/05/22 10:10:34;;;;;;;2.15;1.30;;;;;;;20.95;42.59;101603.69;5031187;28;20479;-69
2022/05/22 10:13:35;;;;;;;3.70;1.52;;;;;;;21.29;43.03;101600.47;4989925;28;20084;-69
2022/05/22 10:16:21;;;;;;;6.10;1.97;;;;;;;21.43;44.42;101596.41;4996235;28;20122;-69
2022/05/22 10:19:20;;;;;;;3.20;1.70;;;;;;;21.68;40.83;101595.72;5015159;28;20467;-69
2022/05/22 10:21:56;;;;;;;4.40;2.22;;;;;;;21.77;44.29;101593.97;4914387;29;20052;-68
2022/05/22 10:24:46;;;;;;;4.10;1.90;;;;;;;21.96;41.37;101593.84;4912059;29;20903;-69
2022/05/22 10:27:50;;;;;;;3.28;2.33;;;;;;;22.20;44.65;101589.72;4908935;29;20059;-69
2022/05/22 10:30:25;;;;;;;5.78;2.47;;;;;;;21.24;42.74;101589.19;4924604;29;20864;-68
2022/05/22 10:33:01;;;;;;;6.10;2.08;;;;;;;20.76;41.97;101590.16;4900085;29;20135;-68
2022/05/22 10:35:29;;;;;;;8.05;2.83;;;;;;;21.29;43.91;101576.03;4920783;29;20799;-69
2022/05/22 10:38:17;;;;;;;4.68;2.38;;;;;;;21.40;47.04;101569.59;4924935;29;20059;-69
2022/05/22 10:43:35;;;;;;;6.95;2.75;;;;;;;20.78;45.16;101577.31;4910429;29;20071;-68
2022/05/22 10:46:01;;;;;;;7.50;2.65;;;;;;;20.97;43.45;101575.56;4914041;29;20055;-69
2022/05/22 10:48:28;;;;;;;5.50;2.70;;;;;;;21.31;46.34;101567.78;4924221;29;20203;-69
2022/05/22 10:50:59;;;;;;;6.00;2.53;;;;;;;21.34;41.66;101567.50;4946904;28;20097;-69
2022/05/22 10:53:40;;;;;;;4.50;2.08;;;;;;;21.46;45.50;101571.72;4936888;28;20102;-69
2022/05/22 10:56:18;;;;;;;5.93;2.33;;;;;;;21.24;43.04;101561.22;4941897;28;20040;-68
2022/05/22 10:58:52;;;;;;;3.78;1.60;;;;;;;21.98;40.90;101556.50;4950660;28;20137;-69
2022/05/22 11:01:21;;;;;;;5.70;2.08;;;;;;;21.65;42.45;101552.59;4986328;28;20872;-68
2022/05/22 11:03:47;;;;;;;5.45;2.15;;;;;;;21.76;42.67;101543.38;4988484;28;20598;-68
2022/05/22 11:06:22;;;;;;;5.40;2.42;;;;;;;21.50;43.09;101540.56;4979428;28;20034;-68
2022/05/22 11:08:53;;;;;;;6.60;2.05;;;;;;;21.89;43.01;101541.16;4988789;28;20139;-69
2022/05/22 11:11:31;;;;;;;3.63;1.88;;;;;;;21.43;40.79;101534.84;4984940;28;20057;-69
2022/05/22 11:14:13;;;;;;;4.32;1.88;;;;;;;22.01;40.42;101525.50;4981361;28;20714;-68
2022/05/22 11:16:40;;;;;;;6.72;2.20;;;;;;;21.76;42.45;101529.81;4989039;28;20065;-68
2022/05/22 11:19:25;;;;;;;5.05;1.70;;;;;;;22.23;42.67;101519.59;4986679;28;20030;-69
2022/05/22 11:22:30;;;;;;;4.75;1.63;;;;;;;21.60;43.00;101521.50;4994324;28;20366;-70
2022/05/22 11:25:09;;;;;;;4.65;1.35;;;;;;;21.37;39.78;101519.19;4975096;28;20124;-70
2022/05/22 11:28:00;;;;;;;3.50;1.95;;;;;;;21.49;39.60;101516.25;4978617;28;20555;-69
2022/05/22 11:30:41;;;;;;;2.53;1.45;;;;;;;21.86;40.69;101516.16;4981449;28;20667;-70
2022/05/22 11:33:07;;;;;;;5.73;1.50;;;;;;;21.54;39.28;101512.09;4975943;28;20047;-69
2022/05/22 11:35:42;;;;;;;5.88;1.73;;;;;;;21.03;41.83;101510.72;4980892;28;20539;-69
2022/05/22 11:38:34;;;;;;;2.78;1.67;;;;;;;21.72;44.89;101501.25;4973180;28;20046;-68
2022/05/22 11:41:22;;;;;;;5.30;2.17;;;;;;;21.74;43.26;101480.25;4993286;28;20052;-70
2022/05/22 11:44:21;;;;;;;6.32;2.10;;;;;;;21.79;40.53;101482.47;4996656;28;20046;-69
2022/05/22 11:47:06;;;;;;;5.38;1.88;;;;;;;22.04;43.10;101472.69;5023399;28;20127;-69
2022/05/22 11:49:43;;;;;;;5.13;1.92;;;;;;;22.04;41.39;101473.56;5021240;28;20041;-69
2022/05/22 11:52:55;;;;;;;7.10;2.22;;;;;;;22.36;41.03;101467.56;5036187;28;20067;-69
2022/05/22 11:55:37;;;;;;;6.43;2.03;;;;;;;22.50;42.72;101477.03;5028046;28;20048;-70
2022/05/22 11:58:17;;;;;;;3.67;1.40;;;;;;;21.78;39.22;101475.34;5013317;28;20033;-70
2022/05/22 12:01:15;;;;;;;4.13;1.50;;;;;;;21.75;40.00;101481.97;5011404;28;20056;-69
2022/05/22 12:04:11;;;;;;;5.40;1.90;;;;;;;22.86;40.01;101460.56;5032245;28;20044;-69
2022/05/22 12:07:01;;;;;;;4.13;1.52;;;;;;;22.44;43.69;101466.75;5018121;28;20045;-69
2022/05/22 12:09:49;;;;;;;3.17;1.42;;;;;;;22.06;40.54;101474.25;5026306;28;20037;-69
2022/05/22 12:12:25;;;;;;;4.80;1.90;;;;;;;22.25;38.74;101469.72;5043131;28;20135;-70
2022/05/22 12:15:01;;;;;;;5.32;2.00;;;;;;;22.52;38.84;101460.53;5040608;28;20043;-70
2022/05/22 12:17:45;;;;;;;5.35;2.45;;;;;;;22.66;39.17;101468.13;5039777;28;20054;-70